Darstellungsparameter: Aktuell verwendete Einstellungen:
Skalierung der Graphiken ... ?
xyx+y,   Skalierungsfaktor:      Skalierung: Modus: x, Faktor: 1
Darstellungszeitraum ... ?
Vom - - bis: - -   Zeitraum: 18.09.2010 - 24.09.2010
Min/Max/Avg-Anzeige ... ?
Zeige MMA aktuell
Zeige MMA Monat
Zeige MMA alles
Zeige --A aktuell
Zeige --A Monat
Zeige --A alles
Keine MMA-Anzeige
MMA:
Average (ber die Originaldaten)
MMA-Basis: 18.09.2010 - 24.09.2010
Quicknavigation für Darstellung... ?
Tage:      1T, 2T, 3T, 5T -1T -2T -3T -5T +1T +2T +3T +5T
Wochen: 1W, 2W, 3W -1W -2W -3W +1W +2W +3W
Monate: 1M, 3M, 6M -1M -3M -6M +1M +3M +6M
Jahre:    1J, 3J, 5J, 10J -1J -3J -5J -10J +1J +3J +5J +10J
Nutze für die Darstellung ... ?
Originaldaten oder Mittelwerte auf ...
Stundenbasis Tagesbasis Wochenbasis
Monatsbasis Jahresbasis      Datenbasis: Original-Daten
Darstellen als:
Statistik (Auto) Statistik J:M      Darstellung:
Zur Graphik,    zurück zur Übersicht aller Sensoren.
 
Tabellarische Datenbersicht: ?
 
Sensor: Nr:Datum:Temp:Abs-Feuchte:Windchill:Wind:
Aussen-T/F 1 18-09-2010 00:03:37 12.2 C 6.8 g/m*3 12.2 C 0 km/h
2 18-09-2010 00:15:37 12.3 C 6.95 g/m*3 12.3 C 0 km/h
3 18-09-2010 00:27:37 12 C 6.82 g/m*3 12 C 0 km/h
4 18-09-2010 00:39:37 12 C 7.03 g/m*3 12 C 0 km/h
5 18-09-2010 00:51:37 12.1 C 7.08 g/m*3 12.1 C 0 km/h
6 18-09-2010 01:03:37 11.9 C 7.2 g/m*3 11.9 C 0 km/h
7 18-09-2010 01:15:37 11.2 C 6.99 g/m*3 11.2 C 0 km/h
8 18-09-2010 01:27:37 10.8 C 7.02 g/m*3 10.8 C 0 km/h
9 18-09-2010 01:39:37 10.4 C 6.94 g/m*3 10.4 C 0 km/h
10 18-09-2010 01:51:37 10.2 C 6.85 g/m*3 10.2 C 0 km/h
11 18-09-2010 02:03:37 10.2 C 6.95 g/m*3 10.2 C 0 km/h
12 18-09-2010 02:15:37 10 C 7.05 g/m*3 10 C 0 km/h
13 18-09-2010 02:27:37 10 C 7.24 g/m*3 10 C 0 km/h
14 18-09-2010 02:39:37 9.8 C 7.33 g/m*3 9.8 C 0 km/h
15 18-09-2010 02:51:37 10 C 7.42 g/m*3 10 C 0 km/h
16 18-09-2010 03:03:38 9.9 C 7.47 g/m*3 9.9 C 0 km/h
17 18-09-2010 03:15:38 9.5 C 7.28 g/m*3 9.5 C 0 km/h
18 18-09-2010 03:27:38 9.4 C 7.33 g/m*3 9.4 C 0 km/h
19 18-09-2010 03:39:38 9.1 C 7.19 g/m*3 9.1 C 0 km/h
20 18-09-2010 03:51:38 9 C 7.23 g/m*3 9 C 0 km/h
21 18-09-2010 04:03:38 8.9 C 7.36 g/m*3 8.9 C 0 km/h
22 18-09-2010 04:15:38 8.7 C 7.26 g/m*3 8.7 C 0 km/h
23 18-09-2010 04:27:38 8.5 C 7.17 g/m*3 8.5 C 0 km/h
24 18-09-2010 04:39:38 8.4 C 7.13 g/m*3 8.4 C 0 km/h
25 18-09-2010 04:51:38 8.2 C 7.03 g/m*3 8.2 C 0 km/h
Sensor: Nr:Datum:Temp:Abs-Feuchte:Windchill:Wind:
Aussen-T/F 26 18-09-2010 05:03:38 8.2 C 7.12 g/m*3 8.2 C 0 km/h
27 18-09-2010 05:15:38 8.1 C 7.16 g/m*3 8.1 C 0 km/h
28 18-09-2010 05:27:38 7.9 C 7.23 g/m*3 7.9 C 0 km/h
29 18-09-2010 05:39:38 7.7 C 7.14 g/m*3 7.7 C 0 km/h
30 18-09-2010 05:51:38 7.8 C 7.26 g/m*3 7.8 C 0 km/h
31 18-09-2010 06:03:38 7.8 C 7.35 g/m*3 7.8 C 0 km/h
32 18-09-2010 06:15:38 7.5 C 7.28 g/m*3 7.5 C 0 km/h
33 18-09-2010 06:27:38 7.5 C 7.28 g/m*3 7.5 C 0 km/h
34 18-09-2010 06:39:38 7.6 C 7.41 g/m*3 7.6 C 0 km/h
35 18-09-2010 06:51:38 7.7 C 7.46 g/m*3 7.7 C 0 km/h
36 18-09-2010 07:03:39 7.7 C 7.46 g/m*3 7.7 C 0 km/h
37 18-09-2010 07:15:39 7.6 C 7.33 g/m*3 7.6 C 0 km/h
38 18-09-2010 07:27:39 7.5 C 7.28 g/m*3 7.5 C 0 km/h
39 18-09-2010 07:39:39 7.3 C 7.19 g/m*3 7.3 C 0 km/h
40 18-09-2010 07:51:39 7.4 C 7.24 g/m*3 7.4 C 0 km/h
41 18-09-2010 08:03:02 7.3 C 7.11 g/m*3 7.3 C 0 km/h
42 18-09-2010 08:15:03 7.4 C 7.16 g/m*3 7.4 C 0 km/h
43 18-09-2010 08:27:03 7.5 C 7.28 g/m*3 7.5 C 0 km/h
44 18-09-2010 08:39:02 7.5 C 7.28 g/m*3 7.5 C 0 km/h
45 18-09-2010 08:51:02 7.6 C 7.33 g/m*3 7.6 C 0 km/h
46 18-09-2010 09:03:02 7.7 C 7.38 g/m*3 7.7 C 0 km/h
47 18-09-2010 09:15:02 7.8 C 7.43 g/m*3 7.8 C 0 km/h
48 18-09-2010 09:27:02 8 C 7.44 g/m*3 8 C 0 km/h
49 18-09-2010 09:39:02 8.2 C 7.54 g/m*3 8.2 C 0 km/h
50 18-09-2010 09:51:02 8.9 C 7.97 g/m*3 8.9 C 0 km/h
Sensor: Nr:Datum:Temp:Abs-Feuchte:Windchill:Wind:
Aussen-T/F 51 18-09-2010 10:03:02 9.3 C 8.09 g/m*3 9.3 C 0 km/h
52 18-09-2010 10:15:02 9.5 C 8.1 g/m*3 9.5 C 0 km/h
53 18-09-2010 10:27:03 9.8 C 8.07 g/m*3 9.8 C 0 km/h
54 18-09-2010 10:39:01 10.7 C 8.25 g/m*3 10.7 C 0 km/h
55 18-09-2010 10:51:02 11.7 C 8.37 g/m*3 11.7 C 0 km/h
56 18-09-2010 11:03:02 12.2 C 6.91 g/m*3 12.2 C 0 km/h
57 18-09-2010 11:15:02 13 C 6.8 g/m*3 13 C 0 km/h
58 18-09-2010 11:27:02 13.6 C 6.59 g/m*3 13.6 C 0 km/h
59 18-09-2010 11:39:02 14 C 6.39 g/m*3 14 C 0 km/h
60 18-09-2010 11:51:01 14.5 C 6.47 g/m*3 14.5 C 0 km/h
61 18-09-2010 12:03:02 14.6 C 6.13 g/m*3 14.6 C 0 km/h
62 18-09-2010 12:15:01 15.7 C 6.15 g/m*3 15.7 C 0 km/h
63 18-09-2010 12:27:01 15.1 C 5.42 g/m*3 15.1 C 0 km/h
64 18-09-2010 12:39:01 15.4 C 6.04 g/m*3 15.4 C 0 km/h
65 18-09-2010 12:51:01 14.9 C 5.86 g/m*3 14.9 C 0 km/h
66 18-09-2010 13:03:02 14.9 C 5.86 g/m*3 14.9 C 0 km/h
67 18-09-2010 13:15:01 15.3 C 5.48 g/m*3 15.3 C 0 km/h
68 18-09-2010 13:27:01 15.6 C 5.32 g/m*3 15.6 C 0 km/h
69 18-09-2010 13:39:01 15.8 C 5.25 g/m*3 15.8 C 0 km/h
70 18-09-2010 13:51:01 16.4 C 5.16 g/m*3 16.4 C 0 km/h
71 18-09-2010 14:03:01 16.2 C 4.96 g/m*3 16.2 C 0 km/h
72 18-09-2010 14:15:02 15.4 C 4.73 g/m*3 15.4 C 0 km/h
73 18-09-2010 14:27:02 14.7 C 4.66 g/m*3 14.7 C 0 km/h
74 18-09-2010 14:39:01 14.9 C 4.72 g/m*3 14.9 C 0 km/h
75 18-09-2010 14:51:02 15.1 C 4.77 g/m*3 15.1 C 0 km/h
Sensor: Nr:Datum:Temp:Abs-Feuchte:Windchill:Wind:
Aussen-T/F 76 18-09-2010 15:03:02 15.4 C 4.6 g/m*3 15.4 C 0 km/h
77 18-09-2010 15:15:02 16.1 C 4.52 g/m*3 16.1 C 0 km/h
78 18-09-2010 15:27:02 15.9 C 4.74 g/m*3 15.9 C 0 km/h
79 18-09-2010 15:39:02 17.3 C 4.57 g/m*3 17.3 C 0 km/h
80 18-09-2010 15:51:02 16.8 C 4.43 g/m*3 16.8 C 0 km/h
81 18-09-2010 16:03:01 16.4 C 4.75 g/m*3 16.4 C 0 km/h
82 18-09-2010 16:15:02 16.2 C 4.55 g/m*3 16.2 C 0 km/h
83 18-09-2010 16:27:03 16.1 C 4.66 g/m*3 16.1 C 0 km/h
84 18-09-2010 16:39:01 16.1 C 4.8 g/m*3 16.1 C 0 km/h
85 18-09-2010 16:51:02 16.3 C 5.55 g/m*3 16.3 C 0 km/h
86 18-09-2010 17:03:02 16.3 C 4.99 g/m*3 16.3 C 0 km/h
87 18-09-2010 17:15:02 16.4 C 6.14 g/m*3 16.4 C 0 km/h
88 18-09-2010 17:27:02 16.3 C 5.41 g/m*3 16.3 C 0 km/h
89 18-09-2010 17:39:02 15.6 C 6.12 g/m*3 15.6 C 0 km/h
90 18-09-2010 17:51:01 14.7 C 5.92 g/m*3 14.7 C 0 km/h
91 18-09-2010 18:03:02 14.5 C 6.09 g/m*3 14.5 C 0 km/h
92 18-09-2010 18:15:01 15.6 C 5.98 g/m*3 15.6 C 0 km/h
93 18-09-2010 18:27:01 16.2 C 5.93 g/m*3 16.2 C 0 km/h
94 18-09-2010 18:39:01 16.2 C 6.07 g/m*3 16.2 C 0 km/h
95 18-09-2010 18:51:01 15.8 C 6.19 g/m*3 15.8 C 0 km/h
96 18-09-2010 19:03:02 15.2 C 6.1 g/m*3 15.2 C 0 km/h
97 18-09-2010 19:15:01 14 C 5.91 g/m*3 14 C 0 km/h
98 18-09-2010 19:27:01 13 C 6.12 g/m*3 13 C 0 km/h
99 18-09-2010 19:39:01 12.2 C 6.04 g/m*3 12.2 C 0 km/h
100 18-09-2010 19:51:01 11.9 C 6.14 g/m*3 11.9 C 0 km/h
Sensor: Nr:Datum:Temp:Abs-Feuchte:Windchill:Wind:
Aussen-T/F 101 18-09-2010 20:03:02 11.4 C 6.36 g/m*3 11.4 C 0 km/h
102 18-09-2010 20:15:02 11.2 C 6.39 g/m*3 11.2 C 0 km/h
103 18-09-2010 20:27:02 11.1 C 6.75 g/m*3 11.1 C 0 km/h
104 18-09-2010 20:39:01 10.9 C 6.76 g/m*3 10.9 C 0 km/h
105 18-09-2010 20:51:01 10.8 C 6.72 g/m*3 10.8 C 0 km/h
106 18-09-2010 21:03:01 10.6 C 6.73 g/m*3 10.6 C 0 km/h
107 18-09-2010 21:15:02 10.2 C 6.66 g/m*3 10.2 C 0 km/h
108 18-09-2010 21:27:02 10 C 6.48 g/m*3 10 C 0 km/h
109 18-09-2010 21:39:01 9.7 C 6.64 g/m*3 9.7 C 0 km/h
110 18-09-2010 21:51:02 9.6 C 6.6 g/m*3 9.6 C 0 km/h
111 18-09-2010 22:03:02 9.3 C 6.56 g/m*3 9.3 C 0 km/h
112 18-09-2010 22:15:02 9.2 C 6.61 g/m*3 9.2 C 0 km/h
113 18-09-2010 22:27:02 9 C 6.7 g/m*3 9 C 0 km/h
114 18-09-2010 22:40:03 8.8 C 6.79 g/m*3 8.8 C 0 km/h
115 18-09-2010 22:52:03 8.6 C 6.79 g/m*3 8.6 C 0 km/h
116 18-09-2010 23:04:03 8.5 C 6.74 g/m*3 8.5 C 0 km/h
117 18-09-2010 23:16:03 8.4 C 6.87 g/m*3 8.4 C 0 km/h
118 18-09-2010 23:28:03 8.2 C 6.78 g/m*3 8.2 C 0 km/h
119 18-09-2010 23:40:03 8 C 6.7 g/m*3 8 C 0 km/h
120 18-09-2010 23:52:03 7.9 C 6.74 g/m*3 7.9 C 0 km/h
121 19-09-2010 00:04:03 7.8 C 6.77 g/m*3 7.8 C 0 km/h
122 19-09-2010 00:16:03 7.7 C 6.73 g/m*3 7.7 C 0 km/h
123 19-09-2010 00:28:03 7.6 C 6.77 g/m*3 7.6 C 0 km/h
124 19-09-2010 00:40:03 7.4 C 6.68 g/m*3 7.4 C 0 km/h
125 19-09-2010 00:52:03 7.3 C 6.64 g/m*3 7.3 C 0 km/h
Sensor: Nr:Datum:Temp:Abs-Feuchte:Windchill:Wind:
Aussen-T/F 126 19-09-2010 01:04:04 7.1 C 6.47 g/m*3 7.1 C 0 km/h
127 19-09-2010 01:16:04 7.1 C 6.55 g/m*3 7.1 C 0 km/h
128 19-09-2010 01:28:04 6.9 C 6.54 g/m*3 6.9 C 0 km/h
129 19-09-2010 01:40:04 6.8 C 6.58 g/m*3 6.8 C 0 km/h
130 19-09-2010 01:52:04 6.7 C 6.53 g/m*3 6.7 C 0 km/h
131 19-09-2010 02:04:04 6.6 C 6.57 g/m*3 6.6 C 0 km/h
132 19-09-2010 02:16:04 6.4 C 6.48 g/m*3 6.4 C 0 km/h
133 19-09-2010 02:28:04 6.4 C 6.48 g/m*3 6.4 C 0 km/h
134 19-09-2010 02:40:04 6.4 C 6.56 g/m*3 6.4 C 0 km/h
135 19-09-2010 02:52:04 6.4 C 6.56 g/m*3 6.4 C 0 km/h
136 19-09-2010 03:04:04 6.4 C 6.56 g/m*3 6.4 C 0 km/h
137 19-09-2010 03:16:04 6.4 C 6.56 g/m*3 6.4 C 0 km/h
138 19-09-2010 03:28:04 6.4 C 6.56 g/m*3 6.4 C 0 km/h
139 19-09-2010 03:40:04 6.5 C 6.6 g/m*3 6.5 C 0 km/h
140 19-09-2010 03:52:04 6.4 C 6.56 g/m*3 6.4 C 0 km/h
141 19-09-2010 04:04:04 6.3 C 6.51 g/m*3 6.3 C 0 km/h
142 19-09-2010 04:16:04 6.1 C 6.43 g/m*3 6.1 C 0 km/h
143 19-09-2010 04:28:04 5.9 C 6.42 g/m*3 5.9 C 0 km/h
144 19-09-2010 04:40:04 6.2 C 6.47 g/m*3 6.2 C 0 km/h
145 19-09-2010 04:52:04 6.5 C 6.67 g/m*3 6.5 C 0 km/h
146 19-09-2010 05:04:05 6.6 C 6.72 g/m*3 6.6 C 0 km/h
147 19-09-2010 05:16:05 6.2 C 6.47 g/m*3 6.2 C 0 km/h
148 19-09-2010 05:28:05 6 C 6.39 g/m*3 6 C 0 km/h
149 19-09-2010 05:40:05 5.8 C 6.3 g/m*3 5.8 C 0 km/h
150 19-09-2010 05:52:05 5.6 C 6.22 g/m*3 5.6 C 0 km/h
Sensor: Nr:Datum:Temp:Abs-Feuchte:Windchill:Wind:
Aussen-T/F 151 19-09-2010 06:04:05 5.5 C 6.18 g/m*3 5.5 C 0 km/h
152 19-09-2010 06:16:05 5.5 C 6.18 g/m*3 5.5 C 0 km/h
153 19-09-2010 06:28:05 5.7 C 6.33 g/m*3 5.7 C 0 km/h
154 19-09-2010 06:40:05 6 C 6.46 g/m*3 6 C 0 km/h
155 19-09-2010 06:52:05 6.1 C 6.5 g/m*3 6.1 C 0 km/h
156 19-09-2010 07:04:05 6.3 C 6.59 g/m*3 6.3 C 0 km/h
157 19-09-2010 07:16:05 6.1 C 6.5 g/m*3 6.1 C 0 km/h
158 19-09-2010 07:28:05 5.8 C 6.38 g/m*3 5.8 C 0 km/h
159 19-09-2010 07:40:05 5.9 C 6.42 g/m*3 5.9 C 0 km/h
160 19-09-2010 07:52:05 5.9 C 6.42 g/m*3 5.9 C 0 km/h
161 19-09-2010 08:04:05 6.2 C 6.47 g/m*3 6.2 C 0 km/h
162 19-09-2010 08:16:05 6.7 C 6.76 g/m*3 6.7 C 0 km/h
163 19-09-2010 08:28:05 7.3 C 6.95 g/m*3 7.3 C 0 km/h
164 19-09-2010 08:40:05 7.4 C 7 g/m*3 7.4 C 0 km/h
165 19-09-2010 08:52:02 7.2 C 6.75 g/m*3 7.2 C 0 km/h
166 19-09-2010 09:04:02 7.2 C 6.67 g/m*3 7.2 C 0 km/h
167 19-09-2010 09:16:02 7.3 C 6.79 g/m*3 7.3 C 0 km/h
168 19-09-2010 09:28:02 7.7 C 6.97 g/m*3 7.7 C 0 km/h
169 19-09-2010 09:40:02 8.8 C 7.31 g/m*3 8.8 C 0 km/h
170 19-09-2010 09:52:01 9.6 C 7.15 g/m*3 9.6 C 0 km/h
171 19-09-2010 10:04:01 10.2 C 6.76 g/m*3 10.2 C 0 km/h
172 19-09-2010 10:16:01 10.9 C 6.86 g/m*3 10.9 C 0 km/h
173 19-09-2010 10:28:01 10.8 C 6.62 g/m*3 10.8 C 0 km/h
174 19-09-2010 10:40:01 10.7 C 6.58 g/m*3 10.7 C 0 km/h
175 19-09-2010 10:52:01 11 C 6.61 g/m*3 11 C 0 km/h
Sensor: Nr:Datum:Temp:Abs-Feuchte:Windchill:Wind:
Aussen-T/F 176 19-09-2010 11:04:01 11.5 C 6.51 g/m*3 11.5 C 0 km/h
177 19-09-2010 11:16:02 12.2 C 6.58 g/m*3 12.2 C 0 km/h
178 19-09-2010 11:28:02 13.3 C 6.47 g/m*3 13.3 C 0 km/h
179 19-09-2010 11:40:01 13.8 C 5.96 g/m*3 13.8 C 0 km/h
180 19-09-2010 11:52:03 13.8 C 5.72 g/m*3 13.8 C 0 km/h
181 19-09-2010 12:04:02 13.8 C 5.84 g/m*3 13.8 C 0 km/h
182 19-09-2010 12:16:02 14.3 C 5.9 g/m*3 14.3 C 0 km/h
183 19-09-2010 12:28:02 15.2 C 5.84 g/m*3 15.2 C 0 km/h
184 19-09-2010 12:40:02 15.7 C 5.35 g/m*3 15.7 C 0 km/h
185 19-09-2010 12:52:02 15.7 C 5.35 g/m*3 15.7 C 0 km/h
186 19-09-2010 13:04:01 16.2 C 5.52 g/m*3 16.2 C 0 km/h
187 19-09-2010 13:16:02 16.4 C 5.58 g/m*3 16.4 C 0 km/h
188 19-09-2010 13:28:02 16.1 C 5.48 g/m*3 16.1 C 0 km/h
189 19-09-2010 13:40:02 16 C 5.59 g/m*3 16 C 0 km/h
190 19-09-2010 13:52:01 15.9 C 5.55 g/m*3 15.9 C 0 km/h
191 19-09-2010 14:04:02 16.5 C 5.62 g/m*3 16.5 C 0 km/h
192 19-09-2010 14:16:01 17.5 C 5.67 g/m*3 17.5 C 0 km/h
193 19-09-2010 14:28:01 17.5 C 5.67 g/m*3 17.5 C 0 km/h
194 19-09-2010 14:40:01 17.5 C 5.67 g/m*3 17.5 C 0 km/h
195 19-09-2010 14:52:01 17.9 C 5.8 g/m*3 17.9 C 0 km/h
196 19-09-2010 15:04:02 17.8 C 5.46 g/m*3 17.8 C 0 km/h
197 19-09-2010 15:16:01 18.6 C 5.73 g/m*3 18.6 C 0 km/h
198 19-09-2010 15:28:01 18.4 C 5.66 g/m*3 18.4 C 0 km/h
199 19-09-2010 15:40:02 19 C 5.38 g/m*3 19 C 0 km/h
200 19-09-2010 15:52:01 19.3 C 4.98 g/m*3 19.3 C 0 km/h
Sensor: Nr:Datum:Temp:Abs-Feuchte:Windchill:Wind:
Aussen-T/F 201 19-09-2010 16:04:02 18.8 C 5.31 g/m*3 18.8 C 0 km/h
202 19-09-2010 16:16:01 18.6 C 5.41 g/m*3 18.6 C 0 km/h
203 19-09-2010 16:28:01 18.8 C 5.31 g/m*3 18.8 C 0 km/h
204 19-09-2010 16:40:02 19.6 C 5.4 g/m*3 19.6 C 0 km/h
205 19-09-2010 16:52:01 19.4 C 5.01 g/m*3 19.4 C 0 km/h
206 19-09-2010 17:04:02 19.8 C 5.3 g/m*3 19.8 C 0 km/h
207 19-09-2010 17:16:02 19.1 C 5.25 g/m*3 19.1 C 0 km/h
208 19-09-2010 17:28:02 18.6 C 5.57 g/m*3 18.6 C 0 km/h
209 19-09-2010 17:40:01 18.4 C 6.29 g/m*3 18.4 C 0 km/h
210 19-09-2010 17:52:02 18 C 5.99 g/m*3 18 C 0 km/h
211 19-09-2010 18:04:01 17.6 C 6 g/m*3 17.6 C 0 km/h
212 19-09-2010 18:16:02 17.2 C 6.3 g/m*3 17.2 C 0 km/h
213 19-09-2010 18:28:03 17.1 C 5.82 g/m*3 17.1 C 0 km/h
214 19-09-2010 18:40:01 17 C 6.08 g/m*3 17 C 0 km/h
215 19-09-2010 18:52:02 16.5 C 5.76 g/m*3 16.5 C 0 km/h
216 19-09-2010 19:04:02 16.2 C 5.79 g/m*3 16.2 C 0 km/h
217 19-09-2010 19:16:02 16 C 5.99 g/m*3 16 C 0 km/h
218 19-09-2010 19:28:02 15.8 C 5.92 g/m*3 15.8 C 0 km/h
219 19-09-2010 19:40:03 15.6 C 5.98 g/m*3 15.6 C 0 km/h
220 19-09-2010 19:52:02 15.3 C 6.14 g/m*3 15.3 C 0 km/h
221 19-09-2010 20:04:02 14.8 C 6.33 g/m*3 14.8 C 0 km/h
222 19-09-2010 20:16:02 14.5 C 6.34 g/m*3 14.5 C 0 km/h
223 19-09-2010 20:28:02 14.3 C 6.27 g/m*3 14.3 C 0 km/h
224 19-09-2010 20:40:02 14.3 C 6.39 g/m*3 14.3 C 0 km/h
225 19-09-2010 20:52:02 14.4 C 6.18 g/m*3 14.4 C 0 km/h
Sensor: Nr:Datum:Temp:Abs-Feuchte:Windchill:Wind:
Aussen-T/F 226 19-09-2010 21:04:02 14.4 C 6.43 g/m*3 14.4 C 0 km/h
227 19-09-2010 21:16:02 14.2 C 6.47 g/m*3 14.2 C 0 km/h
228 19-09-2010 21:28:02 14 C 6.51 g/m*3 14 C 0 km/h
229 19-09-2010 21:40:02 13.7 C 6.87 g/m*3 13.7 C 0 km/h
230 19-09-2010 21:52:03 13.5 C 6.78 g/m*3 13.5 C 0 km/h
231 19-09-2010 22:04:03 13.4 C 6.74 g/m*3 13.4 C 0 km/h
232 19-09-2010 22:17:01 13.3 C 6.7 g/m*3 13.3 C 0 km/h
233 19-09-2010 22:29:01 13.4 C 6.86 g/m*3 13.4 C 0 km/h
234 19-09-2010 22:41:01 13.3 C 6.82 g/m*3 13.3 C 0 km/h
235 19-09-2010 22:53:01 13.2 C 6.77 g/m*3 13.2 C 0 km/h
236 19-09-2010 23:05:01 13 C 6.8 g/m*3 13 C 0 km/h
237 19-09-2010 23:17:01 12.5 C 6.82 g/m*3 12.5 C 0 km/h
238 19-09-2010 23:29:01 12.2 C 6.8 g/m*3 12.2 C 0 km/h
239 19-09-2010 23:41:01 11.9 C 6.67 g/m*3 11.9 C 0 km/h
240 19-09-2010 23:53:01 11.8 C 6.74 g/m*3 11.8 C 0 km/h
241 20-09-2010 00:05:01 11.9 C 6.88 g/m*3 11.9 C 0 km/h
242 20-09-2010 00:17:01 11.9 C 6.99 g/m*3 11.9 C 0 km/h
243 20-09-2010 00:29:02 11.9 C 6.88 g/m*3 11.9 C 0 km/h
244 20-09-2010 00:41:02 11.4 C 6.77 g/m*3 11.4 C 0 km/h
245 20-09-2010 00:53:02 11.3 C 6.83 g/m*3 11.3 C 0 km/h
246 20-09-2010 01:05:02 10.8 C 6.72 g/m*3 10.8 C 0 km/h
247 20-09-2010 01:17:02 10.5 C 6.69 g/m*3 10.5 C 0 km/h
248 20-09-2010 01:29:02 10.4 C 6.75 g/m*3 10.4 C 0 km/h
249 20-09-2010 01:41:02 10.2 C 6.85 g/m*3 10.2 C 0 km/h
250 20-09-2010 01:53:02 10.3 C 6.9 g/m*3 10.3 C 0 km/h
Sensor: Nr:Datum:Temp:Abs-Feuchte:Windchill:Wind:
Aussen-T/F 251 20-09-2010 02:05:02 10.1 C 6.81 g/m*3 10.1 C 0 km/h
252 20-09-2010 02:17:02 10 C 6.77 g/m*3 10 C 0 km/h
253 20-09-2010 02:29:02 9.8 C 6.96 g/m*3 9.8 C 0 km/h
254 20-09-2010 02:41:02 9.6 C 6.87 g/m*3 9.6 C 0 km/h
255 20-09-2010 02:53:02 9.7 C 7.01 g/m*3 9.7 C 0 km/h
256 20-09-2010 03:05:02 9.8 C 6.96 g/m*3 9.8 C 0 km/h
257 20-09-2010 03:17:02 9.6 C 6.96 g/m*3 9.6 C 0 km/h
258 20-09-2010 03:29:02 9.7 C 7.1 g/m*3 9.7 C 0 km/h
259 20-09-2010 03:41:02 9.7 C 7.1 g/m*3 9.7 C 0 km/h
260 20-09-2010 03:53:02 9.4 C 6.96 g/m*3 9.4 C 0 km/h
261 20-09-2010 04:05:02 9.3 C 6.92 g/m*3 9.3 C 0 km/h
262 20-09-2010 04:17:02 9.2 C 6.88 g/m*3 9.2 C 0 km/h
263 20-09-2010 04:29:02 9 C 6.88 g/m*3 9 C 0 km/h
264 20-09-2010 04:41:03 8.8 C 6.88 g/m*3 8.8 C 0 km/h
265 20-09-2010 04:53:03 8.6 C 6.87 g/m*3 8.6 C 0 km/h
266 20-09-2010 05:05:03 8.4 C 6.87 g/m*3 8.4 C 0 km/h
267 20-09-2010 05:17:03 8.4 C 6.87 g/m*3 8.4 C 0 km/h
268 20-09-2010 05:29:03 8.3 C 6.91 g/m*3 8.3 C 0 km/h
269 20-09-2010 05:41:03 8.2 C 6.87 g/m*3 8.2 C 0 km/h
270 20-09-2010 05:53:03 8.3 C 6.91 g/m*3 8.3 C 0 km/h
271 20-09-2010 06:05:03 8.3 C 6.91 g/m*3 8.3 C 0 km/h
272 20-09-2010 06:17:03 8.4 C 7.04 g/m*3 8.4 C 0 km/h
273 20-09-2010 06:29:03 8.5 C 7 g/m*3 8.5 C 0 km/h
274 20-09-2010 06:41:03 8.5 C 7 g/m*3 8.5 C 0 km/h
275 20-09-2010 06:53:03 8.7 C 7.18 g/m*3 8.7 C 0 km/h
Sensor: Nr:Datum:Temp:Abs-Feuchte:Windchill:Wind:
Aussen-T/F 276 20-09-2010 07:05:01 8.6 C 7.13 g/m*3 8.6 C 0 km/h
277 20-09-2010 07:17:02 8.4 C 7.04 g/m*3 8.4 C 0 km/h
278 20-09-2010 07:29:02 8.5 C 7.09 g/m*3 8.5 C 0 km/h
279 20-09-2010 07:41:01 8.5 C 7.09 g/m*3 8.5 C 0 km/h
280 20-09-2010 07:53:02 8.6 C 7.13 g/m*3 8.6 C 0 km/h
281 20-09-2010 08:05:02 9 C 7.14 g/m*3 9 C 0 km/h
282 20-09-2010 08:17:02 9.2 C 6.97 g/m*3 9.2 C 0 km/h
283 20-09-2010 08:29:02 9.2 C 6.79 g/m*3 9.2 C 0 km/h
284 20-09-2010 08:41:02 9.3 C 6.74 g/m*3 9.3 C 0 km/h
285 20-09-2010 08:53:01 9.2 C 6.7 g/m*3 9.2 C 0 km/h
286 20-09-2010 09:05:02 9.3 C 6.83 g/m*3 9.3 C 0 km/h
287 20-09-2010 09:17:01 9.6 C 6.87 g/m*3 9.6 C 0 km/h
288 20-09-2010 09:29:01 9.7 C 6.82 g/m*3 9.7 C 0 km/h
289 20-09-2010 09:41:01 10 C 6.95 g/m*3 10 C 0 km/h
290 20-09-2010 09:53:01 10.6 C 7.12 g/m*3 10.6 C 0 km/h
291 20-09-2010 10:05:02 11.4 C 7.29 g/m*3 11.4 C 0 km/h
292 20-09-2010 10:17:02 12.1 C 7.18 g/m*3 12.1 C 0 km/h
293 20-09-2010 10:29:02 12.4 C 7.1 g/m*3 12.4 C 0 km/h
294 20-09-2010 10:41:01 12.9 C 7.33 g/m*3 12.9 C 0 km/h
295 20-09-2010 10:53:01 13.2 C 7.12 g/m*3 13.2 C 0 km/h
296 20-09-2010 11:05:01 13.3 C 7.39 g/m*3 13.3 C 0 km/h
297 20-09-2010 11:17:02 13.8 C 7.15 g/m*3 13.8 C 0 km/h
298 20-09-2010 11:29:02 14.8 C 6.84 g/m*3 14.8 C 0 km/h
299 20-09-2010 11:41:01 15.3 C 6.66 g/m*3 15.3 C 0 km/h
300 20-09-2010 11:53:02 15.9 C 6.77 g/m*3 15.9 C 0 km/h
Sensor: Nr:Datum:Temp:Abs-Feuchte:Windchill:Wind:
Aussen-T/F 301 20-09-2010 12:05:02 16.1 C 6.31 g/m*3 16.1 C 0 km/h
302 20-09-2010 12:17:02 15.9 C 6.5 g/m*3 15.9 C 0 km/h
303 20-09-2010 12:29:03 16.1 C 6.31 g/m*3 16.1 C 0 km/h
304 20-09-2010 12:41:02 16.4 C 6.42 g/m*3 16.4 C 0 km/h
305 20-09-2010 12:53:02 16.8 C 6.15 g/m*3 16.8 C 0 km/h
306 20-09-2010 13:05:01 17.1 C 6.11 g/m*3 17.1 C 0 km/h
307 20-09-2010 13:17:02 17.5 C 6.26 g/m*3 17.5 C 0 km/h
308 20-09-2010 13:29:02 18.1 C 6.33 g/m*3 18.1 C 0 km/h
309 20-09-2010 13:41:02 18.5 C 6.01 g/m*3 18.5 C 0 km/h
310 20-09-2010 13:53:02 18.9 C 5.83 g/m*3 18.9 C 0 km/h
311 20-09-2010 14:05:03 19.5 C 6.04 g/m*3 19.5 C 0 km/h
312 20-09-2010 14:17:02 19.7 C 5.94 g/m*3 19.7 C 0 km/h
313 20-09-2010 14:29:02 20.1 C 5.91 g/m*3 20.1 C 0 km/h
314 20-09-2010 14:41:02 20.5 C 5.69 g/m*3 20.5 C 0 km/h
315 20-09-2010 14:53:01 20.3 C 5.45 g/m*3 20.3 C 0 km/h
316 20-09-2010 15:05:02 20.8 C 5.79 g/m*3 20.8 C 0 km/h
317 20-09-2010 15:17:01 21.4 C 5.81 g/m*3 21.4 C 0 km/h
318 20-09-2010 15:29:01 21.5 C 5.85 g/m*3 21.5 C 0 km/h
319 20-09-2010 15:41:01 21.6 C 5.88 g/m*3 21.6 C 0 km/h
320 20-09-2010 15:53:01 21.8 C 5.95 g/m*3 21.8 C 0 km/h
321 20-09-2010 16:05:01 22.2 C 6.48 g/m*3 22.2 C 0 km/h
322 20-09-2010 16:17:02 22.6 C 6.23 g/m*3 22.6 C 0 km/h
323 20-09-2010 16:29:02 22.8 C 6.1 g/m*3 22.8 C 0 km/h
324 20-09-2010 16:41:01 22.6 C 6.23 g/m*3 22.6 C 0 km/h
325 20-09-2010 16:53:01 22.1 C 6.05 g/m*3 22.1 C 0 km/h
Sensor: Nr:Datum:Temp:Abs-Feuchte:Windchill:Wind:
Aussen-T/F 326 20-09-2010 17:05:01 22.2 C 6.28 g/m*3 22.2 C 0 km/h
327 20-09-2010 17:17:02 22.1 C 5.86 g/m*3 22.1 C 0 km/h
328 20-09-2010 17:29:02 22.3 C 6.32 g/m*3 22.3 C 0 km/h
329 20-09-2010 17:41:01 22.1 C 5.86 g/m*3 22.1 C 0 km/h
330 20-09-2010 17:53:02 22.7 C 6.26 g/m*3 22.7 C 0 km/h
331 20-09-2010 18:05:02 22.7 C 6.47 g/m*3 22.7 C 0 km/h
332 20-09-2010 18:17:02 22.2 C 6.28 g/m*3 22.2 C 0 km/h
333 20-09-2010 18:29:02 21.6 C 6.64 g/m*3 21.6 C 0 km/h
334 20-09-2010 18:41:02 20.6 C 6.8 g/m*3 20.6 C 0 km/h
335 20-09-2010 18:53:02 19.4 C 7.01 g/m*3 19.4 C 0 km/h
336 20-09-2010 19:05:01 18.9 C 6.97 g/m*3 18.9 C 0 km/h
337 20-09-2010 19:17:01 18.1 C 7.11 g/m*3 18.1 C 0 km/h
338 20-09-2010 19:29:01 17.5 C 7.31 g/m*3 17.5 C 0 km/h
339 20-09-2010 19:41:02 16.8 C 7.29 g/m*3 16.8 C 0 km/h
340 20-09-2010 19:53:02 16.2 C 7.17 g/m*3 16.2 C 0 km/h
341 20-09-2010 20:05:02 15.9 C 7.31 g/m*3 15.9 C 0 km/h
342 20-09-2010 20:17:02 15.6 C 7.45 g/m*3 15.6 C 0 km/h
343 20-09-2010 20:29:02 15.3 C 7.57 g/m*3 15.3 C 0 km/h
344 20-09-2010 20:41:02 15.1 C 7.74 g/m*3 15.1 C 0 km/h
345 20-09-2010 20:53:02 14.8 C 7.6 g/m*3 14.8 C 0 km/h
346 20-09-2010 21:05:02 14.7 C 7.68 g/m*3 14.7 C 0 km/h
347 20-09-2010 21:17:02 14.4 C 7.66 g/m*3 14.4 C 0 km/h
348 20-09-2010 21:29:02 14.2 C 7.69 g/m*3 14.2 C 0 km/h
349 20-09-2010 21:41:02 14 C 7.72 g/m*3 14 C 0 km/h
350 20-09-2010 21:53:02 13.7 C 7.82 g/m*3 13.7 C 0 km/h
Sensor: Nr:Datum:Temp:Abs-Feuchte:Windchill:Wind:
Aussen-T/F 351 20-09-2010 22:06:02 13.6 C 8 g/m*3 13.6 C 0 km/h
352 20-09-2010 22:18:02 13.5 C 7.95 g/m*3 13.5 C 0 km/h
353 20-09-2010 22:30:02 13.5 C 8.07 g/m*3 13.5 C 0 km/h
354 20-09-2010 22:42:02 12.9 C 8.11 g/m*3 12.9 C 0 km/h
355 20-09-2010 22:54:02 12.6 C 8.19 g/m*3 12.6 C 0 km/h
356 20-09-2010 23:06:02 12.6 C 8.19 g/m*3 12.6 C 0 km/h
357 20-09-2010 23:18:02 12.5 C 8.14 g/m*3 12.5 C 0 km/h
358 20-09-2010 23:30:02 12.3 C 8.04 g/m*3 12.3 C 0 km/h
359 20-09-2010 23:42:02 12.1 C 7.94 g/m*3 12.1 C 0 km/h
360 20-09-2010 23:54:02 11.9 C 7.94 g/m*3 11.9 C 0 km/h
361 21-09-2010 00:06:03 11.8 C 7.89 g/m*3 11.8 C 0 km/h
362 21-09-2010 00:18:03 11.6 C 7.9 g/m*3 11.6 C 0 km/h
363 21-09-2010 00:30:03 11.5 C 7.85 g/m*3 11.5 C 0 km/h
364 21-09-2010 00:42:03 11.4 C 7.9 g/m*3 11.4 C 0 km/h
365 21-09-2010 00:54:03 11.3 C 7.85 g/m*3 11.3 C 0 km/h
366 21-09-2010 01:06:03 11.2 C 7.8 g/m*3 11.2 C 0 km/h
367 21-09-2010 01:18:03 11.1 C 7.86 g/m*3 11.1 C 0 km/h
368 21-09-2010 01:30:03 10.9 C 7.86 g/m*3 10.9 C 0 km/h
369 21-09-2010 01:42:03 10.8 C 7.81 g/m*3 10.8 C 0 km/h
370 21-09-2010 01:54:03 10.5 C 7.66 g/m*3 10.5 C 0 km/h
371 21-09-2010 02:06:03 10.4 C 7.71 g/m*3 10.4 C 0 km/h
372 21-09-2010 02:18:03 10.4 C 7.71 g/m*3 10.4 C 0 km/h
373 21-09-2010 02:30:03 10.3 C 7.76 g/m*3 10.3 C 0 km/h
374 21-09-2010 02:42:03 10.1 C 7.66 g/m*3 10.1 C 0 km/h
375 21-09-2010 02:54:03 10 C 7.61 g/m*3 10 C 0 km/h
Sensor: Nr:Datum:Temp:Abs-Feuchte:Windchill:Wind:
Aussen-T/F 376 21-09-2010 03:06:03 10 C 7.71 g/m*3 10 C 0 km/h
377 21-09-2010 03:18:03 9.9 C 7.75 g/m*3 9.9 C 0 km/h
378 21-09-2010 03:30:03 9.8 C 7.79 g/m*3 9.8 C 0 km/h
379 21-09-2010 03:42:03 9.5 C 7.65 g/m*3 9.5 C 0 km/h
380 21-09-2010 03:54:03 9.5 C 7.65 g/m*3 9.5 C 0 km/h
381 21-09-2010 04:06:04 9.4 C 7.6 g/m*3 9.4 C 0 km/h
382 21-09-2010 04:18:04 9.3 C 7.55 g/m*3 9.3 C 0 km/h
383 21-09-2010 04:30:04 9.2 C 7.5 g/m*3 9.2 C 0 km/h
384 21-09-2010 04:42:04 9.2 C 7.5 g/m*3 9.2 C 0 km/h
385 21-09-2010 04:54:04 9 C 7.41 g/m*3 9 C 0 km/h
386 21-09-2010 05:06:04 9 C 7.49 g/m*3 9 C 0 km/h
387 21-09-2010 05:18:04 8.8 C 7.49 g/m*3 8.8 C 0 km/h
388 21-09-2010 05:30:04 8.8 C 7.49 g/m*3 8.8 C 0 km/h
389 21-09-2010 05:42:04 8.7 C 7.44 g/m*3 8.7 C 0 km/h
390 21-09-2010 05:54:04 8.6 C 7.39 g/m*3 8.6 C 0 km/h
391 21-09-2010 06:06:04 8.5 C 7.43 g/m*3 8.5 C 0 km/h
392 21-09-2010 06:18:04 8.4 C 7.38 g/m*3 8.4 C 0 km/h
393 21-09-2010 06:30:04 8.3 C 7.33 g/m*3 8.3 C 0 km/h
394 21-09-2010 06:42:04 8.2 C 7.29 g/m*3 8.2 C 0 km/h
395 21-09-2010 06:54:04 8.3 C 7.42 g/m*3 8.3 C 0 km/h
396 21-09-2010 07:06:02 8.2 C 7.37 g/m*3 8.2 C 0 km/h
397 21-09-2010 07:18:02 8.2 C 7.37 g/m*3 8.2 C 0 km/h
398 21-09-2010 07:30:02 8.1 C 7.32 g/m*3 8.1 C 0 km/h
399 21-09-2010 07:42:03 8.1 C 7.32 g/m*3 8.1 C 0 km/h
400 21-09-2010 07:54:02 8.1 C 7.32 g/m*3 8.1 C 0 km/h
Sensor: Nr:Datum:Temp:Abs-Feuchte:Windchill:Wind:
Aussen-T/F 401 21-09-2010 08:06:01 8 C 7.36 g/m*3 8 C 0 km/h
402 21-09-2010 08:18:02 8.1 C 7.41 g/m*3 8.1 C 0 km/h
403 21-09-2010 08:30:02 8.2 C 7.54 g/m*3 8.2 C 0 km/h
404 21-09-2010 08:42:02 8.4 C 7.63 g/m*3 8.4 C 0 km/h
405 21-09-2010 08:54:02 8.6 C 7.73 g/m*3 8.6 C 0 km/h
406 21-09-2010 09:06:02 8.7 C 7.78 g/m*3 8.7 C 0 km/h
407 21-09-2010 09:18:02 8.9 C 7.88 g/m*3 8.9 C 0 km/h
408 21-09-2010 09:30:02 9.3 C 8 g/m*3 9.3 C 0 km/h
409 21-09-2010 09:42:02 9.5 C 8.1 g/m*3 9.5 C 0 km/h
410 21-09-2010 09:54:01 9.5 C 8.1 g/m*3 9.5 C 0 km/h
411 21-09-2010 10:06:02 9.9 C 8.31 g/m*3 9.9 C 0 km/h
412 21-09-2010 10:18:01 10.5 C 8.53 g/m*3 10.5 C 0 km/h
413 21-09-2010 10:30:01 11.1 C 8.76 g/m*3 11.1 C 0 km/h
414 21-09-2010 10:42:01 11.7 C 8.99 g/m*3 11.7 C 0 km/h
415 21-09-2010 10:54:01 12.4 C 8.96 g/m*3 12.4 C 0 km/h
416 21-09-2010 11:06:01 13 C 8.51 g/m*3 13 C 0 km/h
417 21-09-2010 11:18:02 13.6 C 8.59 g/m*3 13.6 C 0 km/h
418 21-09-2010 11:30:02 14 C 8.56 g/m*3 14 C 0 km/h
419 21-09-2010 11:42:01 14.7 C 8.81 g/m*3 14.7 C 0 km/h
420 21-09-2010 11:54:03 15.3 C 8.75 g/m*3 15.3 C 0 km/h
421 21-09-2010 12:06:02 15.8 C 8.75 g/m*3 15.8 C 0 km/h
422 21-09-2010 12:18:02 16.5 C 8.85 g/m*3 16.5 C 0 km/h
423 21-09-2010 12:30:03 16.5 C 9.13 g/m*3 16.5 C 0 km/h
424 21-09-2010 12:42:02 16 C 8.86 g/m*3 16 C 0 km/h
425 21-09-2010 12:54:02 15.9 C 9.34 g/m*3 15.9 C 0 km/h
Sensor: Nr:Datum:Temp:Abs-Feuchte:Windchill:Wind:
Aussen-T/F 426 21-09-2010 13:06:02 16.4 C 9.77 g/m*3 16.4 C 0 km/h
427 21-09-2010 13:18:02 16.6 C 9.46 g/m*3 16.6 C 0 km/h
428 21-09-2010 13:30:02 16.8 C 9.72 g/m*3 16.8 C 0 km/h
429 21-09-2010 13:42:02 17.3 C 9.87 g/m*3 17.3 C 0 km/h
430 21-09-2010 13:54:02 18 C 9.37 g/m*3 18 C 0 km/h
431 21-09-2010 14:06:02 17.5 C 9.54 g/m*3 17.5 C 0 km/h
432 21-09-2010 14:18:01 17.4 C 9.63 g/m*3 17.4 C 0 km/h
433 21-09-2010 14:30:01 17.2 C 9.52 g/m*3 17.2 C 0 km/h
434 21-09-2010 14:42:02 17.5 C 9.54 g/m*3 17.5 C 0 km/h
435 21-09-2010 14:54:02 19.5 C 9.06 g/m*3 19.5 C 0 km/h
436 21-09-2010 15:06:02 21.3 C 8.76 g/m*3 21.3 C 0 km/h
437 21-09-2010 15:18:02 22.6 C 8.44 g/m*3 22.6 C 0 km/h
438 21-09-2010 15:30:02 23.3 C 7.95 g/m*3 23.3 C 0 km/h
439 21-09-2010 15:42:02 23.9 C 7.79 g/m*3 23.9 C 0 km/h
440 21-09-2010 15:54:02 24.5 C 7.83 g/m*3 24.5 C 0 km/h
441 21-09-2010 16:06:02 25 C 7.6 g/m*3 25 C 0 km/h
442 21-09-2010 16:18:02 25.2 C 7.45 g/m*3 25.2 C 0 km/h
443 21-09-2010 16:30:02 25.2 C 7.68 g/m*3 25.2 C 0 km/h
444 21-09-2010 16:42:02 25.1 C 7.87 g/m*3 25.1 C 0 km/h
445 21-09-2010 16:54:02 25.3 C 7.49 g/m*3 25.3 C 0 km/h
446 21-09-2010 17:06:02 25.4 C 7.53 g/m*3 25.4 C 0 km/h
447 21-09-2010 17:18:02 25.5 C 7.81 g/m*3 25.5 C 0 km/h
448 21-09-2010 17:30:02 24.5 C 7.39 g/m*3 24.5 C 0 km/h
449 21-09-2010 17:42:02 24.1 C 7.44 g/m*3 24.1 C 0 km/h
450 21-09-2010 17:54:02 23.5 C 7.61 g/m*3 23.5 C 0 km/h
Sensor: Nr:Datum:Temp:Abs-Feuchte:Windchill:Wind:
Aussen-T/F 451 21-09-2010 18:06:02 23.2 C 7.69 g/m*3 23.2 C 0 km/h
452 21-09-2010 18:18:02 22.7 C 7.88 g/m*3 22.7 C 0 km/h
453 21-09-2010 18:30:02 22.2 C 7.85 g/m*3 22.2 C 0 km/h
454 21-09-2010 18:42:02 21.7 C 8.01 g/m*3 21.7 C 0 km/h
455 21-09-2010 18:54:02 21.1 C 7.92 g/m*3 21.1 C 0 km/h
456 21-09-2010 19:06:01 20.2 C 8.04 g/m*3 20.2 C 0 km/h
457 21-09-2010 19:18:02 19.5 C 8.22 g/m*3 19.5 C 0 km/h
458 21-09-2010 19:30:02 18.5 C 8.39 g/m*3 18.5 C 0 km/h
459 21-09-2010 19:42:02 17.8 C 8.5 g/m*3 17.8 C 0 km/h
460 21-09-2010 19:54:02 17.2 C 8.49 g/m*3 17.2 C 0 km/h
461 21-09-2010 20:06:03 16.8 C 8.58 g/m*3 16.8 C 0 km/h
462 21-09-2010 20:18:02 16.5 C 8.43 g/m*3 16.5 C 0 km/h
463 21-09-2010 20:30:02 16.3 C 8.46 g/m*3 16.3 C 0 km/h
464 21-09-2010 20:42:02 16.1 C 8.5 g/m*3 16.1 C 0 km/h
465 21-09-2010 20:54:02 15.8 C 8.62 g/m*3 15.8 C 0 km/h
466 21-09-2010 21:06:02 15.6 C 8.51 g/m*3 15.6 C 0 km/h
467 21-09-2010 21:18:01 15.4 C 8.41 g/m*3 15.4 C 0 km/h
468 21-09-2010 21:30:01 15.1 C 8.51 g/m*3 15.1 C 0 km/h
469 21-09-2010 21:42:02 14.7 C 8.56 g/m*3 14.7 C 0 km/h
470 21-09-2010 21:54:02 14.5 C 8.46 g/m*3 14.5 C 0 km/h
471 21-09-2010 22:06:02 14.4 C 8.53 g/m*3 14.4 C 0 km/h
472 21-09-2010 22:18:01 14.1 C 8.5 g/m*3 14.1 C 0 km/h
473 21-09-2010 22:30:01 13.9 C 8.51 g/m*3 13.9 C 0 km/h
474 21-09-2010 22:42:01 13.6 C 8.47 g/m*3 13.6 C 0 km/h
475 21-09-2010 22:54:01 13.5 C 8.54 g/m*3 13.5 C 0 km/h
Sensor: Nr:Datum:Temp:Abs-Feuchte:Windchill:Wind:
Aussen-T/F 476 21-09-2010 23:06:01 13.2 C 8.38 g/m*3 13.2 C 0 km/h
477 21-09-2010 23:18:01 13.1 C 8.44 g/m*3 13.1 C 0 km/h
478 21-09-2010 23:30:01 13 C 8.51 g/m*3 13 C 0 km/h
479 21-09-2010 23:42:01 12.9 C 8.68 g/m*3 12.9 C 0 km/h
480 21-09-2010 23:54:01 12.7 C 8.68 g/m*3 12.7 C 0 km/h
481 22-09-2010 00:06:01 12.5 C 8.69 g/m*3 12.5 C 0 km/h
482 22-09-2010 00:18:01 12.3 C 8.58 g/m*3 12.3 C 0 km/h
483 22-09-2010 00:30:01 12.2 C 8.52 g/m*3 12.2 C 0 km/h
484 22-09-2010 00:42:01 12.1 C 8.47 g/m*3 12.1 C 0 km/h
485 22-09-2010 00:54:01 11.9 C 8.47 g/m*3 11.9 C 0 km/h
486 22-09-2010 01:06:02 11.8 C 8.53 g/m*3 11.8 C 0 km/h
487 22-09-2010 01:18:02 11.6 C 8.42 g/m*3 11.6 C 0 km/h
488 22-09-2010 01:30:02 11.5 C 8.47 g/m*3 11.5 C 0 km/h
489 22-09-2010 01:42:02 11.3 C 8.26 g/m*3 11.3 C 0 km/h
490 22-09-2010 01:54:02 11.3 C 8.36 g/m*3 11.3 C 0 km/h
491 22-09-2010 02:06:02 11 C 8.21 g/m*3 11 C 0 km/h
492 22-09-2010 02:18:02 10.9 C 8.16 g/m*3 10.9 C 0 km/h
493 22-09-2010 02:30:02 10.8 C 8.2 g/m*3 10.8 C 0 km/h
494 22-09-2010 02:42:02 10.7 C 8.15 g/m*3 10.7 C 0 km/h
495 22-09-2010 02:54:02 10.5 C 8.05 g/m*3 10.5 C 0 km/h
496 22-09-2010 03:06:02 10.4 C 8 g/m*3 10.4 C 0 km/h
497 22-09-2010 03:18:02 10.4 C 8 g/m*3 10.4 C 0 km/h
498 22-09-2010 03:30:02 10.3 C 8.04 g/m*3 10.3 C 0 km/h
499 22-09-2010 03:42:02 10.1 C 7.94 g/m*3 10.1 C 0 km/h
500 22-09-2010 03:54:02 9.9 C 8.03 g/m*3 9.9 C 0 km/h
Sensor: Nr:Datum:Temp:Abs-Feuchte:Windchill:Wind:
Aussen-T/F 501 22-09-2010 04:06:02 9.9 C 8.03 g/m*3 9.9 C 0 km/h
502 22-09-2010 04:18:02 9.7 C 7.93 g/m*3 9.7 C 0 km/h
503 22-09-2010 04:30:02 9.6 C 7.79 g/m*3 9.6 C 0 km/h
504 22-09-2010 04:42:02 9.6 C 7.88 g/m*3 9.6 C 0 km/h
505 22-09-2010 04:54:02 9.8 C 8.07 g/m*3 9.8 C 0 km/h
506 22-09-2010 05:06:02 9.8 C 8.07 g/m*3 9.8 C 0 km/h
507 22-09-2010 05:18:02 9.9 C 8.22 g/m*3 9.9 C 0 km/h
508 22-09-2010 05:30:03 9.9 C 8.22 g/m*3 9.9 C 0 km/h
509 22-09-2010 05:42:03 9.9 C 8.22 g/m*3 9.9 C 0 km/h
510 22-09-2010 05:54:03 9.7 C 8.02 g/m*3 9.7 C 0 km/h
511 22-09-2010 06:06:03 9.8 C 8.16 g/m*3 9.8 C 0 km/h
512 22-09-2010 06:18:03 9.8 C 8.16 g/m*3 9.8 C 0 km/h
513 22-09-2010 06:30:03 9.8 C 8.16 g/m*3 9.8 C 0 km/h
514 22-09-2010 06:42:03 9.7 C 8.11 g/m*3 9.7 C 0 km/h
515 22-09-2010 06:54:03 9.8 C 8.16 g/m*3 9.8 C 0 km/h
516 22-09-2010 07:06:01 9.8 C 8.16 g/m*3 9.8 C 0 km/h
517 22-09-2010 07:18:02 9.8 C 8.16 g/m*3 9.8 C 0 km/h
518 22-09-2010 07:30:02 9.6 C 8.06 g/m*3 9.6 C 0 km/h
519 22-09-2010 07:42:01 9.3 C 7.91 g/m*3 9.3 C 0 km/h
520 22-09-2010 07:54:01 9.3 C 7.91 g/m*3 9.3 C 0 km/h
521 22-09-2010 08:06:01 9.3 C 7.91 g/m*3 9.3 C 0 km/h
522 22-09-2010 08:18:02 9.3 C 7.91 g/m*3 9.3 C 0 km/h
523 22-09-2010 08:30:02 9.6 C 8.15 g/m*3 9.6 C 0 km/h
524 22-09-2010 08:42:01 9.3 C 7.91 g/m*3 9.3 C 0 km/h
525 22-09-2010 08:54:02 9.3 C 7.91 g/m*3 9.3 C 0 km/h
Sensor: Nr:Datum:Temp:Abs-Feuchte:Windchill:Wind:
Aussen-T/F 526 22-09-2010 09:06:01 9.6 C 8.06 g/m*3 9.6 C 0 km/h
527 22-09-2010 09:18:02 9.8 C 8.16 g/m*3 9.8 C 0 km/h
528 22-09-2010 09:30:02 10.2 C 8.09 g/m*3 10.2 C 0 km/h
529 22-09-2010 09:42:01 10.3 C 8.04 g/m*3 10.3 C 0 km/h
530 22-09-2010 09:54:02 11 C 8.41 g/m*3 11 C 0 km/h
531 22-09-2010 10:06:01 11.8 C 8.63 g/m*3 11.8 C 0 km/h
532 22-09-2010 10:18:01 12.4 C 8.74 g/m*3 12.4 C 0 km/h
533 22-09-2010 10:30:01 12 C 8.31 g/m*3 12 C 0 km/h
534 22-09-2010 10:42:02 12.7 C 8.79 g/m*3 12.7 C 0 km/h
535 22-09-2010 10:54:01 13.2 C 8.73 g/m*3 13.2 C 0 km/h
536 22-09-2010 11:06:02 12.9 C 8.68 g/m*3 12.9 C 0 km/h
537 22-09-2010 11:18:01 13.1 C 8.9 g/m*3 13.1 C 0 km/h
538 22-09-2010 11:30:01 13.6 C 9.3 g/m*3 13.6 C 0 km/h
539 22-09-2010 11:42:02 14.2 C 9.52 g/m*3 14.2 C 0 km/h
540 22-09-2010 11:54:01 15.1 C 9.55 g/m*3 15.1 C 0 km/h
541 22-09-2010 12:06:02 15.6 C 9.71 g/m*3 15.6 C 0 km/h
542 22-09-2010 12:18:01 16 C 9.67 g/m*3 16 C 0 km/h
543 22-09-2010 12:30:01 16.5 C 9.97 g/m*3 16.5 C 0 km/h
544 22-09-2010 12:42:01 17.1 C 10.19 g/m*3 17.1 C 0 km/h
545 22-09-2010 12:54:01 17.5 C 10.29 g/m*3 17.5 C 0 km/h
546 22-09-2010 13:06:01 18.4 C 9.91 g/m*3 18.4 C 0 km/h
547 22-09-2010 13:18:02 19.1 C 9.84 g/m*3 19.1 C 0 km/h
548 22-09-2010 13:30:02 19.7 C 10.19 g/m*3 19.7 C 0 km/h
549 22-09-2010 13:42:01 20.4 C 10.26 g/m*3 20.4 C 0 km/h
550 22-09-2010 13:54:01 21.2 C 10.19 g/m*3 21.2 C 0 km/h
Sensor: Nr:Datum:Temp:Abs-Feuchte:Windchill:Wind:
Aussen-T/F 551 22-09-2010 14:06:01 21.8 C 10.36 g/m*3 21.8 C 0 km/h
552 22-09-2010 14:18:02 22.2 C 10.01 g/m*3 22.2 C 0 km/h
553 22-09-2010 14:30:02 22.9 C 10.22 g/m*3 22.9 C 0 km/h
554 22-09-2010 14:42:01 23.4 C 9.88 g/m*3 23.4 C 0 km/h
555 22-09-2010 14:54:02 24 C 9.79 g/m*3 24 C 0 km/h
556 22-09-2010 15:06:01 24.2 C 9.9 g/m*3 24.2 C 0 km/h
557 22-09-2010 15:18:01 24.1 C 9.63 g/m*3 24.1 C 0 km/h
558 22-09-2010 15:30:01 24.9 C 9.61 g/m*3 24.9 C 0 km/h
559 22-09-2010 15:42:01 25.6 C 8.81 g/m*3 25.6 C 0 km/h
560 22-09-2010 15:54:01 26.5 C 8.26 g/m*3 26.5 C 0 km/h
561 22-09-2010 16:06:01 26.9 C 8.7 g/m*3 26.9 C 0 km/h
562 22-09-2010 16:18:01 27.1 C 8.8 g/m*3 27.1 C 0 km/h
563 22-09-2010 16:30:01 27.4 C 8.68 g/m*3 27.4 C 0 km/h
564 22-09-2010 16:42:02 27.6 C 8.51 g/m*3 27.6 C 0 km/h
565 22-09-2010 16:54:01 27.6 C 8.25 g/m*3 27.6 C 0 km/h
566 22-09-2010 17:06:02 27.3 C 7.85 g/m*3 27.3 C 0 km/h
567 22-09-2010 17:18:01 27.4 C 8.16 g/m*3 27.4 C 0 km/h
568 22-09-2010 17:30:01 27.2 C 8.07 g/m*3 27.2 C 0 km/h
569 22-09-2010 17:42:01 26.9 C 7.93 g/m*3 26.9 C 0 km/h
570 22-09-2010 17:54:01 26.5 C 8.76 g/m*3 26.5 C 0 km/h
571 22-09-2010 18:06:02 26.1 C 8.81 g/m*3 26.1 C 0 km/h
572 22-09-2010 18:18:01 25.6 C 9.05 g/m*3 25.6 C 0 km/h
573 22-09-2010 18:30:01 25.3 C 9.36 g/m*3 25.3 C 0 km/h
574 22-09-2010 18:42:01 24.1 C 8.97 g/m*3 24.1 C 0 km/h
575 22-09-2010 18:54:01 23.3 C 9.2 g/m*3 23.3 C 0 km/h
Sensor: Nr:Datum:Temp:Abs-Feuchte:Windchill:Wind:
Aussen-T/F 576 22-09-2010 19:06:01 22.5 C 9.19 g/m*3 22.5 C 0 km/h
577 22-09-2010 19:18:02 21.8 C 9.4 g/m*3 21.8 C 0 km/h
578 22-09-2010 19:30:02 20.6 C 9.31 g/m*3 20.6 C 0 km/h
579 22-09-2010 19:42:01 20 C 8.99 g/m*3 20 C 0 km/h
580 22-09-2010 19:54:01 19.5 C 9.06 g/m*3 19.5 C 0 km/h
581 22-09-2010 20:06:01 19 C 9.13 g/m*3 19 C 0 km/h
582 22-09-2010 20:18:02 18.7 C 9.13 g/m*3 18.7 C 0 km/h
583 22-09-2010 20:30:02 18.5 C 9.02 g/m*3 18.5 C 0 km/h
584 22-09-2010 20:42:01 18.4 C 9.12 g/m*3 18.4 C 0 km/h
585 22-09-2010 20:54:02 18.1 C 9.12 g/m*3 18.1 C 0 km/h
586 22-09-2010 21:06:01 17.9 C 9.31 g/m*3 17.9 C 0 km/h
587 22-09-2010 21:18:01 17.6 C 9.45 g/m*3 17.6 C 0 km/h
588 22-09-2010 21:30:01 17.5 C 9.24 g/m*3 17.5 C 0 km/h
589 22-09-2010 21:42:01 17.3 C 9.28 g/m*3 17.3 C 0 km/h
590 22-09-2010 21:54:01 17 C 9.26 g/m*3 17 C 0 km/h
591 22-09-2010 22:08:02 16.8 C 9.29 g/m*3 16.8 C 0 km/h
592 22-09-2010 22:20:02 16.4 C 9.35 g/m*3 16.4 C 0 km/h
593 22-09-2010 22:32:02 16.1 C 9.32 g/m*3 16.1 C 0 km/h
594 22-09-2010 22:44:02 15.9 C 9.21 g/m*3 15.9 C 0 km/h
595 22-09-2010 22:56:02 15.7 C 9.1 g/m*3 15.7 C 0 km/h
596 22-09-2010 23:08:02 15.4 C 8.8 g/m*3 15.4 C 0 km/h
597 22-09-2010 23:20:02 15.1 C 8.77 g/m*3 15.1 C 0 km/h
598 22-09-2010 23:32:02 14.9 C 8.79 g/m*3 14.9 C 0 km/h
599 22-09-2010 23:44:02 14.7 C 8.81 g/m*3 14.7 C 0 km/h
600 22-09-2010 23:56:02 14.5 C 8.71 g/m*3 14.5 C 0 km/h
Sensor: Nr:Datum:Temp:Abs-Feuchte:Windchill:Wind:
Aussen-T/F 601 23-09-2010 00:08:02 14.4 C 8.53 g/m*3 14.4 C 0 km/h
602 23-09-2010 00:20:02 14.2 C 8.67 g/m*3 14.2 C 0 km/h
603 23-09-2010 00:32:02 14 C 8.56 g/m*3 14 C 0 km/h
604 23-09-2010 00:44:02 13.8 C 8.7 g/m*3 13.8 C 0 km/h
605 23-09-2010 00:56:02 13.7 C 8.76 g/m*3 13.7 C 0 km/h
606 23-09-2010 01:08:02 13.5 C 8.77 g/m*3 13.5 C 0 km/h
607 23-09-2010 01:20:02 13.4 C 8.72 g/m*3 13.4 C 0 km/h
608 23-09-2010 01:32:02 13.2 C 8.73 g/m*3 13.2 C 0 km/h
609 23-09-2010 01:44:02 13.1 C 8.67 g/m*3 13.1 C 0 km/h
610 23-09-2010 01:56:03 12.9 C 8.68 g/m*3 12.9 C 0 km/h
611 23-09-2010 02:08:03 12.8 C 8.74 g/m*3 12.8 C 0 km/h
612 23-09-2010 02:20:03 12.6 C 8.74 g/m*3 12.6 C 0 km/h
613 23-09-2010 02:32:03 12.4 C 8.74 g/m*3 12.4 C 0 km/h
614 23-09-2010 02:44:03 12.3 C 8.69 g/m*3 12.3 C 0 km/h
615 23-09-2010 02:56:03 12.1 C 8.58 g/m*3 12.1 C 0 km/h
616 23-09-2010 03:08:03 12 C 8.53 g/m*3 12 C 0 km/h
617 23-09-2010 03:20:03 11.8 C 8.53 g/m*3 11.8 C 0 km/h
618 23-09-2010 03:32:03 11.8 C 8.53 g/m*3 11.8 C 0 km/h
619 23-09-2010 03:44:03 11.8 C 8.63 g/m*3 11.8 C 0 km/h
620 23-09-2010 03:56:03 11.6 C 8.63 g/m*3 11.6 C 0 km/h
621 23-09-2010 04:08:03 11.4 C 8.52 g/m*3 11.4 C 0 km/h
622 23-09-2010 04:20:03 11.2 C 8.41 g/m*3 11.2 C 0 km/h
623 23-09-2010 04:32:03 11.2 C 8.41 g/m*3 11.2 C 0 km/h
624 23-09-2010 04:44:03 11 C 8.31 g/m*3 11 C 0 km/h
625 23-09-2010 04:56:03 11 C 8.31 g/m*3 11 C 0 km/h
Sensor: Nr:Datum:Temp:Abs-Feuchte:Windchill:Wind:
Aussen-T/F 626 23-09-2010 05:08:03 10.9 C 8.36 g/m*3 10.9 C 0 km/h
627 23-09-2010 05:20:03 10.7 C 8.25 g/m*3 10.7 C 0 km/h
628 23-09-2010 05:32:03 10.6 C 8.2 g/m*3 10.6 C 0 km/h
629 23-09-2010 05:44:03 10.5 C 8.15 g/m*3 10.5 C 0 km/h
630 23-09-2010 05:56:03 10.5 C 8.15 g/m*3 10.5 C 0 km/h
631 23-09-2010 06:08:03 10.4 C 8.1 g/m*3 10.4 C 0 km/h
632 23-09-2010 06:20:04 10.5 C 8.24 g/m*3 10.5 C 0 km/h
633 23-09-2010 06:32:04 10.6 C 8.3 g/m*3 10.6 C 0 km/h
634 23-09-2010 06:44:04 10.4 C 8.19 g/m*3 10.4 C 0 km/h
635 23-09-2010 06:56:04 10.4 C 8.19 g/m*3 10.4 C 0 km/h
636 23-09-2010 07:08:02 10.5 C 8.24 g/m*3 10.5 C 0 km/h
637 23-09-2010 07:20:01 10.4 C 8.19 g/m*3 10.4 C 0 km/h
638 23-09-2010 07:32:02 10.5 C 8.24 g/m*3 10.5 C 0 km/h
639 23-09-2010 07:44:02 10.6 C 8.3 g/m*3 10.6 C 0 km/h
640 23-09-2010 07:56:02 10.6 C 8.3 g/m*3 10.6 C 0 km/h
641 23-09-2010 08:08:02 10.6 C 8.3 g/m*3 10.6 C 0 km/h
642 23-09-2010 08:20:01 10.7 C 8.35 g/m*3 10.7 C 0 km/h
643 23-09-2010 08:32:02 10.8 C 8.4 g/m*3 10.8 C 0 km/h
644 23-09-2010 08:44:02 11 C 8.51 g/m*3 11 C 0 km/h
645 23-09-2010 08:56:02 11.3 C 8.57 g/m*3 11.3 C 0 km/h
646 23-09-2010 09:08:01 11.4 C 8.52 g/m*3 11.4 C 0 km/h
647 23-09-2010 09:20:01 11.4 C 8.52 g/m*3 11.4 C 0 km/h
648 23-09-2010 09:32:02 11.4 C 8.52 g/m*3 11.4 C 0 km/h
649 23-09-2010 09:44:02 11.7 C 8.79 g/m*3 11.7 C 0 km/h
650 23-09-2010 09:56:02 12.3 C 8.9 g/m*3 12.3 C 0 km/h
Sensor: Nr:Datum:Temp:Abs-Feuchte:Windchill:Wind:
Aussen-T/F 651 23-09-2010 10:08:02 12.4 C 8.96 g/m*3 12.4 C 0 km/h
652 23-09-2010 10:20:02 12.5 C 9.02 g/m*3 12.5 C 0 km/h
653 23-09-2010 10:32:02 12.9 C 9.24 g/m*3 12.9 C 0 km/h
654 23-09-2010 10:44:02 13.3 C 9.36 g/m*3 13.3 C 0 km/h
655 23-09-2010 10:56:02 13.8 C 9.65 g/m*3 13.8 C 0 km/h
656 23-09-2010 11:08:02 14.1 C 9.71 g/m*3 14.1 C 0 km/h
657 23-09-2010 11:20:02 15 C 10 g/m*3 15 C 0 km/h
658 23-09-2010 11:32:02 15.8 C 10.23 g/m*3 15.8 C 0 km/h
659 23-09-2010 11:44:02 16.3 C 10.13 g/m*3 16.3 C 0 km/h
660 23-09-2010 11:56:02 17 C 10.27 g/m*3 17 C 0 km/h
661 23-09-2010 12:08:02 17.5 C 10.44 g/m*3 17.5 C 0 km/h
662 23-09-2010 12:20:02 18 C 10.44 g/m*3 18 C 0 km/h
663 23-09-2010 12:32:02 18.7 C 10.73 g/m*3 18.7 C 0 km/h
664 23-09-2010 12:44:02 19.2 C 10.55 g/m*3 19.2 C 0 km/h
665 23-09-2010 12:56:02 19.9 C 10.82 g/m*3 19.9 C 0 km/h
666 23-09-2010 13:08:02 20.5 C 11.03 g/m*3 20.5 C 0 km/h
667 23-09-2010 13:20:02 21.4 C 11.06 g/m*3 21.4 C 0 km/h
668 23-09-2010 13:32:01 22.3 C 11.26 g/m*3 22.3 C 0 km/h
669 23-09-2010 13:44:01 23.3 C 10.66 g/m*3 23.3 C 0 km/h
670 23-09-2010 13:56:02 24 C 9.14 g/m*3 24 C 0 km/h
671 23-09-2010 14:08:01 24.5 C 9.62 g/m*3 24.5 C 0 km/h
672 23-09-2010 14:20:02 23.8 C 10.11 g/m*3 23.8 C 0 km/h
673 23-09-2010 14:32:02 23.7 C 10.48 g/m*3 23.7 C 0 km/h
674 23-09-2010 14:44:02 23.8 C 10.54 g/m*3 23.8 C 0 km/h
675 23-09-2010 14:56:02 24.5 C 10.3 g/m*3 24.5 C 0 km/h
Sensor: Nr:Datum:Temp:Abs-Feuchte:Windchill:Wind:
Aussen-T/F 676 23-09-2010 15:08:02 25.2 C 8.85 g/m*3 25.2 C 0 km/h
677 23-09-2010 15:20:02 25.2 C 9.78 g/m*3 25.2 C 0 km/h
678 23-09-2010 15:32:02 24.8 C 9.33 g/m*3 24.8 C 0 km/h
679 23-09-2010 15:44:03 25.1 C 9.26 g/m*3 25.1 C 0 km/h
680 23-09-2010 15:56:01 24.9 C 9.61 g/m*3 24.9 C 0 km/h
681 23-09-2010 16:08:02 25.1 C 10.19 g/m*3 25.1 C 0 km/h
682 23-09-2010 16:20:01 26 C 9.74 g/m*3 26 C 0 km/h
683 23-09-2010 16:32:01 25.6 C 9.05 g/m*3 25.6 C 0 km/h
684 23-09-2010 16:44:01 24.9 C 10.07 g/m*3 24.9 C 0 km/h
685 23-09-2010 16:56:01 24.1 C 10.28 g/m*3 24.1 C 0 km/h
686 23-09-2010 17:08:01 23.7 C 10.91 g/m*3 23.7 C 0 km/h
687 23-09-2010 17:20:02 23.4 C 10.72 g/m*3 23.4 C 0 km/h
688 23-09-2010 17:32:01 23.2 C 10.81 g/m*3 23.2 C 0 km/h
689 23-09-2010 17:44:01 23.3 C 10.45 g/m*3 23.3 C 0 km/h
690 23-09-2010 17:56:02 23.8 C 10.76 g/m*3 23.8 C 0 km/h
691 23-09-2010 18:08:01 23.3 C 10.45 g/m*3 23.3 C 0 km/h
692 23-09-2010 18:20:02 22.6 C 10.25 g/m*3 22.6 C 0 km/h
693 23-09-2010 18:32:01 21.7 C 10.68 g/m*3 21.7 C 0 km/h
694 23-09-2010 18:44:01 21.6 C 10.81 g/m*3 21.6 C 0 km/h
695 23-09-2010 18:56:02 21.4 C 10.87 g/m*3 21.4 C 0 km/h
696 23-09-2010 19:08:02 20.9 C 10.93 g/m*3 20.9 C 0 km/h
697 23-09-2010 19:20:02 20.4 C 10.97 g/m*3 20.4 C 0 km/h
698 23-09-2010 19:32:02 19.8 C 11.1 g/m*3 19.8 C 0 km/h
699 23-09-2010 19:44:02 19.4 C 11.18 g/m*3 19.4 C 0 km/h
700 23-09-2010 19:56:02 19 C 11.08 g/m*3 19 C 0 km/h
Sensor: Nr:Datum:Temp:Abs-Feuchte:Windchill:Wind:
Aussen-T/F 701 23-09-2010 20:08:01 18.8 C 11.43 g/m*3 18.8 C 0 km/h
702 23-09-2010 20:20:02 18.6 C 11.3 g/m*3 18.6 C 0 km/h
703 23-09-2010 20:32:02 18.6 C 11.3 g/m*3 18.6 C 0 km/h
704 23-09-2010 20:44:02 18.4 C 11.32 g/m*3 18.4 C 0 km/h
705 23-09-2010 20:56:02 18.1 C 11.12 g/m*3 18.1 C 0 km/h
706 23-09-2010 21:08:02 18.4 C 11.48 g/m*3 18.4 C 0 km/h
707 23-09-2010 21:20:01 18.3 C 11.41 g/m*3 18.3 C 0 km/h
708 23-09-2010 21:32:02 18.4 C 11.64 g/m*3 18.4 C 0 km/h
709 23-09-2010 21:44:02 18.7 C 11.53 g/m*3 18.7 C 0 km/h
710 23-09-2010 21:57:02 18.7 C 11.37 g/m*3 18.7 C 0 km/h
711 23-09-2010 22:09:02 18.5 C 11.23 g/m*3 18.5 C 0 km/h
712 23-09-2010 22:21:02 18.5 C 11.39 g/m*3 18.5 C 0 km/h
713 23-09-2010 22:33:02 17.9 C 11.6 g/m*3 17.9 C 0 km/h
714 23-09-2010 22:45:02 17.7 C 12.52 g/m*3 17.7 C 0 km/h
715 23-09-2010 22:57:02 17.1 C 12.23 g/m*3 17.1 C 0 km/h
716 23-09-2010 23:09:02 16.9 C 12.37 g/m*3 16.9 C 0 km/h
717 23-09-2010 23:21:02 16.5 C 12.22 g/m*3 16.5 C 0 km/h
718 23-09-2010 23:33:02 16.4 C 12.28 g/m*3 16.4 C 0 km/h
719 23-09-2010 23:45:02 16.2 C 12.14 g/m*3 16.2 C 0 km/h
720 23-09-2010 23:57:02 16.2 C 12.27 g/m*3 16.2 C 0 km/h
721 24-09-2010 00:09:02 16 C 12.13 g/m*3 16 C 0 km/h
722 24-09-2010 00:21:02 15.9 C 12.32 g/m*3 15.9 C 0 km/h
723 24-09-2010 00:33:02 15.6 C 12.1 g/m*3 15.6 C 0 km/h
724 24-09-2010 00:45:02 15.5 C 12.16 g/m*3 15.5 C 0 km/h
725 24-09-2010 00:57:02 15.5 C 12.16 g/m*3 15.5 C 0 km/h
Sensor: Nr:Datum:Temp:Abs-Feuchte:Windchill:Wind:
Aussen-T/F 726 24-09-2010 01:09:02 15.5 C 12.16 g/m*3 15.5 C 0 km/h
727 24-09-2010 01:21:02 15.5 C 12.29 g/m*3 15.5 C 0 km/h
728 24-09-2010 01:33:02 15.6 C 12.37 g/m*3 15.6 C 0 km/h
729 24-09-2010 01:45:02 15.6 C 12.37 g/m*3 15.6 C 0 km/h
730 24-09-2010 01:57:03 15.5 C 12.29 g/m*3 15.5 C 0 km/h
731 24-09-2010 02:09:03 15.5 C 12.29 g/m*3 15.5 C 0 km/h
732 24-09-2010 02:21:03 15.5 C 12.29 g/m*3 15.5 C 0 km/h
733 24-09-2010 02:33:03 15.4 C 12.22 g/m*3 15.4 C 0 km/h
734 24-09-2010 02:45:03 15.3 C 12.01 g/m*3 15.3 C 0 km/h
735 24-09-2010 02:57:03 15.2 C 11.94 g/m*3 15.2 C 0 km/h
736 24-09-2010 03:09:03 15.1 C 11.87 g/m*3 15.1 C 0 km/h
737 24-09-2010 03:21:03 14.9 C 11.85 g/m*3 14.9 C 0 km/h
738 24-09-2010 03:33:03 14.9 C 11.85 g/m*3 14.9 C 0 km/h
739 24-09-2010 03:45:03 14.9 C 11.98 g/m*3 14.9 C 0 km/h
740 24-09-2010 03:57:03 14.9 C 11.98 g/m*3 14.9 C 0 km/h
741 24-09-2010 04:09:03 14.8 C 11.91 g/m*3 14.8 C 0 km/h
742 24-09-2010 04:21:03 14.8 C 11.91 g/m*3 14.8 C 0 km/h
743 24-09-2010 04:33:03 14.8 C 11.91 g/m*3 14.8 C 0 km/h
744 24-09-2010 04:45:03 14.8 C 11.91 g/m*3 14.8 C 0 km/h
745 24-09-2010 04:57:03 14.7 C 11.83 g/m*3 14.7 C 0 km/h
746 24-09-2010 05:09:03 14.5 C 11.69 g/m*3 14.5 C 0 km/h
747 24-09-2010 05:21:03 14.5 C 11.69 g/m*3 14.5 C 0 km/h
748 24-09-2010 05:33:03 14.5 C 11.69 g/m*3 14.5 C 0 km/h
749 24-09-2010 05:45:03 14.6 C 11.76 g/m*3 14.6 C 0 km/h
750 24-09-2010 05:57:03 14.6 C 11.76 g/m*3 14.6 C 0 km/h
Sensor: Nr:Datum:Temp:Abs-Feuchte:Windchill:Wind:
Aussen-T/F 751 24-09-2010 06:09:03 14.7 C 11.83 g/m*3 14.7 C 0 km/h
752 24-09-2010 06:21:04 14.7 C 11.83 g/m*3 14.7 C 0 km/h
753 24-09-2010 06:33:04 14.7 C 11.83 g/m*3 14.7 C 0 km/h
754 24-09-2010 06:45:04 14.7 C 11.83 g/m*3 14.7 C 0 km/h
755 24-09-2010 06:57:04 14.7 C 11.83 g/m*3 14.7 C 0 km/h
756 24-09-2010 07:09:04 14.5 C 11.69 g/m*3 14.5 C 0 km/h
757 24-09-2010 07:21:04 14.4 C 11.62 g/m*3 14.4 C 0 km/h
758 24-09-2010 07:33:02 14.3 C 11.55 g/m*3 14.3 C 0 km/h
759 24-09-2010 07:45:02 14.4 C 11.62 g/m*3 14.4 C 0 km/h
760 24-09-2010 07:57:02 14.4 C 11.62 g/m*3 14.4 C 0 km/h
761 24-09-2010 08:09:02 14.4 C 11.62 g/m*3 14.4 C 0 km/h
762 24-09-2010 08:21:01 14.3 C 11.55 g/m*3 14.3 C 0 km/h
763 24-09-2010 08:33:02 14.6 C 11.89 g/m*3 14.6 C 0 km/h
764 24-09-2010 08:45:02 14.8 C 12.03 g/m*3 14.8 C 0 km/h
765 24-09-2010 08:57:02 14.8 C 12.03 g/m*3 14.8 C 0 km/h
766 24-09-2010 09:09:01 14.8 C 12.03 g/m*3 14.8 C 0 km/h
767 24-09-2010 09:21:02 14.8 C 12.03 g/m*3 14.8 C 0 km/h
768 24-09-2010 09:33:01 14.9 C 12.11 g/m*3 14.9 C 0 km/h
769 24-09-2010 09:45:02 14.9 C 12.11 g/m*3 14.9 C 0 km/h
770 24-09-2010 09:57:02 15 C 12.05 g/m*3 15 C 0 km/h
771 24-09-2010 10:09:02 15 C 12.05 g/m*3 15 C 0 km/h
772 24-09-2010 10:21:02 14.9 C 12.11 g/m*3 14.9 C 0 km/h
773 24-09-2010 10:33:02 15 C 12.05 g/m*3 15 C 0 km/h
774 24-09-2010 10:45:01 15 C 12.05 g/m*3 15 C 0 km/h
775 24-09-2010 10:57:01 15 C 12.05 g/m*3 15 C 0 km/h
Sensor: Nr:Datum:Temp:Abs-Feuchte:Windchill:Wind:
Aussen-T/F 776 24-09-2010 11:09:02 15.1 C 12.13 g/m*3 15.1 C 0 km/h
777 24-09-2010 11:21:01 15.1 C 12.13 g/m*3 15.1 C 0 km/h
778 24-09-2010 11:33:01 15.4 C 12.35 g/m*3 15.4 C 0 km/h
779 24-09-2010 11:45:02 15.4 C 12.35 g/m*3 15.4 C 0 km/h
780 24-09-2010 11:57:02 15.1 C 12.13 g/m*3 15.1 C 0 km/h
781 24-09-2010 12:09:02 15.1 C 12.13 g/m*3 15.1 C 0 km/h
782 24-09-2010 12:21:02 15.1 C 12.13 g/m*3 15.1 C 0 km/h
783 24-09-2010 12:33:03 15.4 C 12.48 g/m*3 15.4 C 0 km/h
784 24-09-2010 12:45:02 15.1 C 12.13 g/m*3 15.1 C 0 km/h
785 24-09-2010 12:57:03 15 C 12.05 g/m*3 15 C 0 km/h
786 24-09-2010 13:09:02 14.8 C 11.91 g/m*3 14.8 C 0 km/h
787 24-09-2010 13:21:02 14.6 C 11.76 g/m*3 14.6 C 0 km/h
788 24-09-2010 13:33:02 14.5 C 11.69 g/m*3 14.5 C 0 km/h
789 24-09-2010 13:45:02 14.5 C 11.69 g/m*3 14.5 C 0 km/h
790 24-09-2010 13:57:02 14.4 C 11.62 g/m*3 14.4 C 0 km/h
791 24-09-2010 14:09:03 14.1 C 11.41 g/m*3 14.1 C 0 km/h
792 24-09-2010 14:21:02 13.8 C 11.2 g/m*3 13.8 C 0 km/h
793 24-09-2010 14:33:03 13.5 C 10.99 g/m*3 13.5 C 0 km/h
794 24-09-2010 14:45:02 13.2 C 10.79 g/m*3 13.2 C 0 km/h
795 24-09-2010 14:57:02 13.1 C 10.73 g/m*3 13.1 C 0 km/h
796 24-09-2010 15:09:02 12.9 C 10.71 g/m*3 12.9 C 0 km/h
797 24-09-2010 15:21:03 13.1 C 10.73 g/m*3 13.1 C 0 km/h
798 24-09-2010 15:33:02 13 C 10.77 g/m*3 13 C 0 km/h
799 24-09-2010 15:45:03 13.2 C 10.91 g/m*3 13.2 C 0 km/h
800 24-09-2010 15:57:03 13.2 C 10.91 g/m*3 13.2 C 0 km/h
Sensor: Nr:Datum:Temp:Abs-Feuchte:Windchill:Wind:
Aussen-T/F 801 24-09-2010 16:09:02 13.3 C 10.98 g/m*3 13.3 C 0 km/h
802 24-09-2010 16:21:02 13.7 C 11.25 g/m*3 13.7 C 0 km/h
803 24-09-2010 16:33:02 14 C 11.46 g/m*3 14 C 0 km/h
804 24-09-2010 16:45:02 14.1 C 11.53 g/m*3 14.1 C 0 km/h
805 24-09-2010 16:57:02 13.9 C 11.39 g/m*3 13.9 C 0 km/h
806 24-09-2010 17:09:02 13.9 C 11.39 g/m*3 13.9 C 0 km/h
807 24-09-2010 17:21:02 13.9 C 11.39 g/m*3 13.9 C 0 km/h
808 24-09-2010 17:33:02 13.4 C 10.93 g/m*3 13.4 C 0 km/h
809 24-09-2010 17:45:02 13.2 C 10.79 g/m*3 13.2 C 0 km/h
810 24-09-2010 17:57:02 13 C 10.66 g/m*3 13 C 0 km/h
811 24-09-2010 18:09:01 13.2 C 10.79 g/m*3 13.2 C 0 km/h
812 24-09-2010 18:21:01 13.3 C 10.86 g/m*3 13.3 C 0 km/h
813 24-09-2010 18:33:02 13.3 C 10.86 g/m*3 13.3 C 0 km/h
814 24-09-2010 18:45:02 13.3 C 10.86 g/m*3 13.3 C 0 km/h
815 24-09-2010 18:57:02 13.2 C 10.79 g/m*3 13.2 C 0 km/h
816 24-09-2010 19:09:02 13.1 C 10.73 g/m*3 13.1 C 0 km/h
817 24-09-2010 19:21:01 12.9 C 10.71 g/m*3 12.9 C 0 km/h
818 24-09-2010 19:33:02 12.8 C 10.64 g/m*3 12.8 C 0 km/h
819 24-09-2010 19:45:02 12.7 C 10.58 g/m*3 12.7 C 0 km/h
820 24-09-2010 19:57:02 12.7 C 10.58 g/m*3 12.7 C 0 km/h
821 24-09-2010 20:09:02 12.7 C 10.58 g/m*3 12.7 C 0 km/h
822 24-09-2010 20:21:01 12.7 C 10.58 g/m*3 12.7 C 0 km/h
823 24-09-2010 20:33:02 12.7 C 10.58 g/m*3 12.7 C 0 km/h
824 24-09-2010 20:45:01 12.7 C 10.58 g/m*3 12.7 C 0 km/h
825 24-09-2010 20:57:01 12.7 C 10.58 g/m*3 12.7 C 0 km/h
Sensor: Nr:Datum:Temp:Abs-Feuchte:Windchill:Wind:
Aussen-T/F 826 24-09-2010 21:09:02 12.8 C 10.64 g/m*3 12.8 C 0 km/h
827 24-09-2010 21:21:02 12.8 C 10.64 g/m*3 12.8 C 0 km/h
828 24-09-2010 21:33:02 12.9 C 10.71 g/m*3 12.9 C 0 km/h
829 24-09-2010 21:45:02 12.8 C 10.64 g/m*3 12.8 C 0 km/h
830 24-09-2010 21:57:02 12.8 C 10.64 g/m*3 12.8 C 0 km/h
831 24-09-2010 22:09:01 12.8 C 10.64 g/m*3 12.8 C 0 km/h
832 24-09-2010 22:21:02 12.8 C 10.64 g/m*3 12.8 C 0 km/h
833 24-09-2010 22:33:02 12.7 C 10.58 g/m*3 12.7 C 0 km/h
834 24-09-2010 22:46:04 12.6 C 10.51 g/m*3 12.6 C 0 km/h
835 24-09-2010 22:58:04 12.6 C 10.51 g/m*3 12.6 C 0 km/h
836 24-09-2010 23:10:04 12.5 C 10.44 g/m*3 12.5 C 0 km/h
837 24-09-2010 23:22:04 12.4 C 10.38 g/m*3 12.4 C 0 km/h
838 24-09-2010 23:34:04 12.4 C 10.38 g/m*3 12.4 C 0 km/h
839 24-09-2010 23:46:04 12.3 C 10.32 g/m*3 12.3 C 0 km/h
840 24-09-2010 23:58:04 12.4 C 10.38 g/m*3 12.4 C 0 km/h

Legende:
   Min
   Max


Maximal/Minimal-Werte vom 18.09.2010 - 24.09.2010

Sensor Min Max Avg
Temp
(Aussen-T/F)
5.5 °C
19-09-2010  06:04:05
27.6 °C
22-09-2010  16:42:02
14.01 °C
Abs-Feuchte
(Aussen-T/F)
4.43 g/m*3
18-09-2010  15:51:02
12.52 g/m*3
23-09-2010  22:45:02
8.25 g/m*3
Windchill
(Aussen-T/F)
5.5 C
19-09-2010  06:04:05
27.6 C
22-09-2010  16:42:02
13.99 C

Die Daten stammen von einer Davis Vantage Pro 2 Wetter-Station und werden unter Linux mit der Software wview2wettercgi und aufbereitet. Alle Angaben erfolgen ohne Gewähr für ihre Vollständigkeit oder Richtigkeit.
Kontakt: Rainer Krienke krienke@uni-koblenz.de . Meine Webseiten an der Uni Koblenz oder privat.
Version: $Revision: 0.78 $